sensor_id;sensor_type;location;lat;lon;timestamp;pressure;altitude;pressure_sealevel;temperature;humidity
74895;BME280;63447;49.446;8.666;2023-04-06T00:00:37;100721.44;;;4.11;57.20
74895;BME280;63447;49.446;8.666;2023-04-06T00:03:04;100679.53;;;3.77;57.11
74895;BME280;63447;49.446;8.666;2023-04-06T00:05:30;100711.19;;;3.83;57.69
74895;BME280;63447;49.446;8.666;2023-04-06T00:07:58;100722.94;;;3.78;58.20
74895;BME280;63447;49.446;8.666;2023-04-06T00:10:24;100725.94;;;3.77;58.71
74895;BME280;63447;49.446;8.666;2023-04-06T00:12:52;100704.19;;;3.56;58.48
74895;BME280;63447;49.446;8.666;2023-04-06T00:15:17;100718.63;;;3.52;58.76
74895;BME280;63447;49.446;8.666;2023-04-06T00:17:42;100707.78;;;3.31;58.00
74895;BME280;63447;49.446;8.666;2023-04-06T00:20:08;100716.75;;;3.47;59.03
74895;BME280;63447;49.446;8.666;2023-04-06T00:22:34;100722.19;;;3.57;58.93
74895;BME280;63447;49.446;8.666;2023-04-06T00:25:02;100718.91;;;3.60;58.29
74895;BME280;63447;49.446;8.666;2023-04-06T00:27:27;100719.13;;;3.69;58.11
74895;BME280;63447;49.446;8.666;2023-04-06T00:29:52;100706.06;;;3.61;58.84
74895;BME280;63447;49.446;8.666;2023-04-06T00:32:21;100704.72;;;3.63;58.16
74895;BME280;63447;49.446;8.666;2023-04-06T00:34:48;100716.13;;;3.70;58.47
74895;BME280;63447;49.446;8.666;2023-04-06T00:37:16;100706.03;;;3.71;57.29
74895;BME280;63447;49.446;8.666;2023-04-06T00:39:42;100715.28;;;3.80;57.44
74895;BME280;63447;49.446;8.666;2023-04-06T00:42:11;100702.72;;;3.79;58.13
74895;BME280;63447;49.446;8.666;2023-04-06T00:44:43;100686.94;;;3.66;58.81
74895;BME280;63447;49.446;8.666;2023-04-06T00:47:11;100713.41;;;3.70;59.30
74895;BME280;63447;49.446;8.666;2023-04-06T00:49:39;100691.56;;;3.65;58.21
74895;BME280;63447;49.446;8.666;2023-04-06T00:52:07;100699.19;;;3.73;58.97
74895;BME280;63447;49.446;8.666;2023-04-06T00:54:33;100683.94;;;3.67;59.27
74895;BME280;63447;49.446;8.666;2023-04-06T00:56:58;100701.09;;;3.73;59.10
74895;BME280;63447;49.446;8.666;2023-04-06T00:59:23;100695.66;;;3.68;59.29
74895;BME280;63447;49.446;8.666;2023-04-06T01:01:49;100683.44;;;3.60;59.34
74895;BME280;63447;49.446;8.666;2023-04-06T01:04:17;100656.19;;;3.40;59.41
74895;BME280;63447;49.446;8.666;2023-04-06T01:06:42;100690.75;;;3.65;59.58
74895;BME280;63447;49.446;8.666;2023-04-06T01:09:10;100690.75;;;3.65;59.40
74895;BME280;63447;49.446;8.666;2023-04-06T01:11:38;100679.63;;;3.56;59.08
74895;BME280;63447;49.446;8.666;2023-04-06T01:14:03;100686.16;;;3.55;60.58
74895;BME280;63447;49.446;8.666;2023-04-06T01:16:31;100679.66;;;3.41;60.74
74895;BME280;63447;49.446;8.666;2023-04-06T01:18:59;100682.66;;;3.39;61.14
74895;BME280;63447;49.446;8.666;2023-04-06T01:21:26;100682.41;;;3.36;60.71
74895;BME280;63447;49.446;8.666;2023-04-06T01:23:55;100684.31;;;3.30;61.13
74895;BME280;63447;49.446;8.666;2023-04-06T01:26:20;100682.69;;;3.34;61.40
74895;BME280;63447;49.446;8.666;2023-04-06T01:28:48;100669.63;;;3.21;60.64
74895;BME280;63447;49.446;8.666;2023-04-06T01:31:13;100675.88;;;3.27;60.74
74895;BME280;63447;49.446;8.666;2023-04-06T01:33:44;100658.44;;;3.18;60.85
74895;BME280;63447;49.446;8.666;2023-04-06T01:36:12;100645.91;;;3.17;61.80
74895;BME280;63447;49.446;8.666;2023-04-06T01:38:38;100656.53;;;3.18;61.71
74895;BME280;63447;49.446;8.666;2023-04-06T01:41:03;100662.81;;;3.19;62.89
74895;BME280;63447;49.446;8.666;2023-04-06T01:43:29;100665.28;;;3.10;61.97
74895;BME280;63447;49.446;8.666;2023-04-06T01:45:54;100655.22;;;3.05;62.07
74895;BME280;63447;49.446;8.666;2023-04-06T01:48:23;100663.38;;;3.05;62.50
74895;BME280;63447;49.446;8.666;2023-04-06T01:50:48;100662.84;;;3.03;62.44
74895;BME280;63447;49.446;8.666;2023-04-06T01:53:16;100667.44;;;3.13;62.59
74895;BME280;63447;49.446;8.666;2023-04-06T01:55:43;100647.03;;;3.00;62.41
74895;BME280;63447;49.446;8.666;2023-04-06T01:58:14;100665.03;;;2.96;61.97
74895;BME280;63447;49.446;8.666;2023-04-06T02:00:42;100660.66;;;2.90;63.25
74895;BME280;63447;49.446;8.666;2023-04-06T02:03:10;100647.59;;;2.77;63.57
74895;BME280;63447;49.446;8.666;2023-04-06T02:05:35;100647.31;;;2.73;64.02
74895;BME280;63447;49.446;8.666;2023-04-06T02:08:06;100658.78;;;2.70;62.70
74895;BME280;63447;49.446;8.666;2023-04-06T02:10:34;100656.84;;;2.66;62.92
74895;BME280;63447;49.446;8.666;2023-04-06T02:13:02;100655.25;;;2.60;63.51
74895;BME280;63447;49.446;8.666;2023-04-06T02:15:30;100656.59;;;2.52;64.63
74895;BME280;63447;49.446;8.666;2023-04-06T02:17:57;100652.50;;;2.50;65.14
74895;BME280;63447;49.446;8.666;2023-04-06T02:20:22;100638.88;;;2.34;65.66
74895;BME280;63447;49.446;8.666;2023-04-06T02:22:47;100652.75;;;2.43;64.25
74895;BME280;63447;49.446;8.666;2023-04-06T02:25:13;100650.31;;;2.42;64.35
74895;BME280;63447;49.446;8.666;2023-04-06T02:27:38;100653.03;;;2.42;65.23
74895;BME280;63447;49.446;8.666;2023-04-06T02:30:03;100651.66;;;2.39;65.58
74895;BME280;63447;49.446;8.666;2023-04-06T02:32:29;100643.78;;;2.37;65.45
74895;BME280;63447;49.446;8.666;2023-04-06T02:34:57;100635.59;;;2.37;64.42
74895;BME280;63447;49.446;8.666;2023-04-06T02:37:25;100650.31;;;2.42;64.64
74895;BME280;63447;49.446;8.666;2023-04-06T02:39:53;100644.03;;;2.36;64.36
74895;BME280;63447;49.446;8.666;2023-04-06T02:42:20;100650.06;;;2.33;65.63
74895;BME280;63447;49.446;8.666;2023-04-06T02:44:48;100648.13;;;2.23;65.43
74895;BME280;63447;49.446;8.666;2023-04-06T02:47:13;100642.94;;;2.17;66.41
74895;BME280;63447;49.446;8.666;2023-04-06T02:49:44;100645.13;;;2.20;65.50
74895;BME280;63447;49.446;8.666;2023-04-06T02:52:09;100642.13;;;2.06;66.88
74895;BME280;63447;49.446;8.666;2023-04-06T02:54:37;100634.75;;;2.07;66.20
74895;BME280;63447;49.446;8.666;2023-04-06T02:57:05;100634.75;;;2.01;66.47
74895;BME280;63447;49.446;8.666;2023-04-06T02:59:31;100643.94;;;1.85;66.23
74895;BME280;63447;49.446;8.666;2023-04-06T03:01:58;100647.25;;;1.97;66.95
74895;BME280;63447;49.446;8.666;2023-04-06T03:04:26;100634.91;;;1.64;67.21
74895;BME280;63447;49.446;8.666;2023-04-06T03:06:53;100644.78;;;1.81;68.49
74895;BME280;63447;49.446;8.666;2023-04-06T03:09:19;100635.78;;;1.85;66.57
74895;BME280;63447;49.446;8.666;2023-04-06T03:11:49;100647.53;;;2.01;67.53
74895;BME280;63447;49.446;8.666;2023-04-06T03:14:14;100646.16;;;2.09;65.92
74895;BME280;63447;49.446;8.666;2023-04-06T03:16:42;100645.09;;;1.99;65.78
74895;BME280;63447;49.446;8.666;2023-04-06T03:19:07;100647.28;;;2.08;65.67
74895;BME280;63447;49.446;8.666;2023-04-06T03:21:33;100634.75;;;2.01;66.32
74895;BME280;63447;49.446;8.666;2023-04-06T03:23:58;100648.34;;;2.01;66.57
74895;BME280;63447;49.446;8.666;2023-04-06T03:26:28;100645.31;;;1.93;66.20
74895;BME280;63447;49.446;8.666;2023-04-06T03:28:53;100648.31;;;1.91;66.91
74895;BME280;63447;49.446;8.666;2023-04-06T03:31:21;100655.13;;;1.94;66.84
74895;BME280;63447;49.446;8.666;2023-04-06T03:33:50;100643.66;;;1.87;66.39
74895;BME280;63447;49.446;8.666;2023-04-06T03:36:17;100647.47;;;1.76;66.57
74895;BME280;63447;49.446;8.666;2023-04-06T03:38:50;100653.22;;;1.94;66.15
74895;BME280;63447;49.446;8.666;2023-04-06T03:41:20;100646.69;;;1.90;66.00
74895;BME280;63447;49.446;8.666;2023-04-06T03:43:50;100649.38;;;1.85;66.66
74895;BME280;63447;49.446;8.666;2023-04-06T03:46:17;100654.56;;;1.87;67.73
74895;BME280;63447;49.446;8.666;2023-04-06T03:48:47;100646.41;;;1.87;66.47
74895;BME280;63447;49.446;8.666;2023-04-06T03:51:15;100656.19;;;1.88;67.21
74895;BME280;63447;49.446;8.666;2023-04-06T03:53:45;100655.09;;;1.84;67.12
74895;BME280;63447;49.446;8.666;2023-04-06T03:56:11;100650.22;;;1.81;66.11
74895;BME280;63447;49.446;8.666;2023-04-06T03:58:38;100657.00;;;1.83;66.22
74895;BME280;63447;49.446;8.666;2023-04-06T04:01:06;100660.81;;;1.77;66.79
74895;BME280;63447;49.446;8.666;2023-04-06T04:03:31;100663.75;;;1.70;66.72
74895;BME280;63447;49.446;8.666;2023-04-06T04:05:59;100653.66;;;1.61;67.57
74895;BME280;63447;49.446;8.666;2023-04-06T04:08:27;100667.59;;;1.75;66.78
74895;BME280;63447;49.446;8.666;2023-04-06T04:10:52;100673.56;;;1.72;66.75
74895;BME280;63447;49.446;8.666;2023-04-06T04:13:22;100653.91;;;1.59;66.33
74895;BME280;63447;49.446;8.666;2023-04-06T04:15:50;100673.78;;;1.65;66.86
74895;BME280;63447;49.446;8.666;2023-04-06T04:18:15;100658.53;;;1.54;66.61
74895;BME280;63447;49.446;8.666;2023-04-06T04:20:43;100676.75;;;1.53;67.92
74895;BME280;63447;49.446;8.666;2023-04-06T04:25:37;100689.22;;;1.49;67.75
74895;BME280;63447;49.446;8.666;2023-04-06T04:28:04;100661.94;;;1.29;67.45
74895;BME280;63447;49.446;8.666;2023-04-06T04:30:32;100693.06;;;1.53;67.45
74895;BME280;63447;49.446;8.666;2023-04-06T04:32:57;100697.16;;;1.56;68.06
74895;BME280;63447;49.446;8.666;2023-04-06T04:35:26;100688.44;;;1.54;67.73
74895;BME280;63447;49.446;8.666;2023-04-06T04:37:56;100677.78;;;1.47;67.04
74895;BME280;63447;49.446;8.666;2023-04-06T04:40:23;100705.00;;;1.47;66.54
74895;BME280;63447;49.446;8.666;2023-04-06T04:42:51;100683.13;;;1.32;68.00
74895;BME280;63447;49.446;8.666;2023-04-06T04:45:19;100692.94;;;1.33;66.98
74895;BME280;63447;49.446;8.666;2023-04-06T04:47:44;100702.72;;;1.34;67.93
74895;BME280;63447;49.446;8.666;2023-04-06T04:50:10;100700.84;;;1.40;67.89
74895;BME280;63447;49.446;8.666;2023-04-06T04:52:38;100697.31;;;1.39;66.86
74895;BME280;63447;49.446;8.666;2023-04-06T04:55:03;100678.25;;;1.34;66.50
74895;BME280;63447;49.446;8.666;2023-04-06T04:57:31;100701.94;;;1.39;66.78
74895;BME280;63447;49.446;8.666;2023-04-06T04:59:57;100695.81;;;1.16;68.53
74895;BME280;63447;49.446;8.666;2023-04-06T05:02:23;100700.69;;;1.14;68.49
74895;BME280;63447;49.446;8.666;2023-04-06T05:04:48;100693.78;;;0.96;68.26
74895;BME280;63447;49.446;8.666;2023-04-06T05:07:13;100706.59;;;1.01;68.89
74895;BME280;63447;49.446;8.666;2023-04-06T05:09:40;100704.91;;;0.95;69.90
74895;BME280;63447;49.446;8.666;2023-04-06T05:12:06;100698.16;;;0.97;68.94
74895;BME280;63447;49.446;8.666;2023-04-06T05:14:31;100707.63;;;0.95;68.70
74895;BME280;63447;49.446;8.666;2023-04-06T05:16:59;100712.09;;;0.79;68.62
74895;BME280;63447;49.446;8.666;2023-04-06T05:19:24;100712.09;;;0.79;70.44
74895;BME280;63447;49.446;8.666;2023-04-06T05:21:53;100719.84;;;0.92;70.27
74895;BME280;63447;49.446;8.666;2023-04-06T05:24:18;100710.41;;;1.05;69.35
74895;BME280;63447;49.446;8.666;2023-04-06T05:26:44;100715.44;;;1.23;68.80
74895;BME280;63447;49.446;8.666;2023-04-06T05:29:11;100705.94;;;1.26;69.85
74895;BME280;63447;49.446;8.666;2023-04-06T05:31:37;100707.91;;;1.35;68.81
74895;BME280;63447;49.446;8.666;2023-04-06T05:34:02;100691.31;;;1.37;67.88
74895;BME280;63447;49.446;8.666;2023-04-06T05:36:28;100709.66;;;1.57;67.64
74895;BME280;63447;49.446;8.666;2023-04-06T05:38:53;100721.03;;;1.49;66.89
74895;BME280;63447;49.446;8.666;2023-04-06T05:41:20;100713.97;;;1.48;67.70
74895;BME280;63447;49.446;8.666;2023-04-06T05:43:47;100698.50;;;1.53;67.42
74895;BME280;63447;49.446;8.666;2023-04-06T05:46:13;100708.38;;;1.69;67.98
74895;BME280;63447;49.446;8.666;2023-04-06T05:48:41;100699.19;;;1.81;68.08
74895;BME280;63447;49.446;8.666;2023-04-06T05:51:07;100685.56;;;1.86;67.03
74895;BME280;63447;49.446;8.666;2023-04-06T05:53:32;100705.47;;;1.96;66.14
74895;BME280;63447;49.446;8.666;2023-04-06T05:56:03;100703.88;;;2.11;66.06
74895;BME280;63447;49.446;8.666;2023-04-06T05:58:29;100716.72;;;2.20;65.83
74895;BME280;63447;49.446;8.666;2023-04-06T06:00:58;100716.13;;;2.13;65.47
74895;BME280;63447;49.446;8.666;2023-04-06T06:03:26;100699.53;;;2.04;66.21
74895;BME280;63447;49.446;8.666;2023-04-06T06:06:03;100714.81;;;2.21;66.54
74895;BME280;63447;49.446;8.666;2023-04-06T06:08:33;100706.88;;;2.09;66.87
74895;BME280;63447;49.446;8.666;2023-04-06T06:10:58;100704.97;;;2.04;65.90
74895;BME280;63447;49.446;8.666;2023-04-06T06:13:24;100714.56;;;2.32;65.96
74895;BME280;63447;49.446;8.666;2023-04-06T06:15:51;100694.41;;;2.28;64.18
74895;BME280;63447;49.446;8.666;2023-04-06T06:18:19;100703.97;;;2.31;65.49
74895;BME280;63447;49.446;8.666;2023-04-06T06:20:45;100704.25;;;2.50;64.59
74895;BME280;63447;49.446;8.666;2023-04-06T06:23:10;100712.47;;;2.80;63.66
74895;BME280;63447;49.446;8.666;2023-04-06T06:25:38;100714.34;;;2.95;63.92
74895;BME280;63447;49.446;8.666;2023-04-06T06:28:04;100701.28;;;3.02;61.87
74895;BME280;63447;49.446;8.666;2023-04-06T06:30:34;100707.00;;;3.05;64.13
74895;BME280;63447;49.446;8.666;2023-04-06T06:32:59;100721.16;;;3.13;62.80
74895;BME280;63447;49.446;8.666;2023-04-06T06:35:24;100726.00;;;3.51;61.02
74895;BME280;63447;49.446;8.666;2023-04-06T06:37:52;100725.44;;;3.59;62.03
74895;BME280;63447;49.446;8.666;2023-04-06T06:40:17;100729.22;;;3.68;61.38
74895;BME280;63447;49.446;8.666;2023-04-06T06:42:43;100725.91;;;3.87;60.53
74895;BME280;63447;49.446;8.666;2023-04-06T06:45:09;100723.63;;;4.09;60.00
74895;BME280;63447;49.446;8.666;2023-04-06T06:47:35;100725.28;;;4.05;59.51
74895;BME280;63447;49.446;8.666;2023-04-06T06:50:03;100730.41;;;4.17;60.04
74895;BME280;63447;49.446;8.666;2023-04-06T06:52:30;100728.44;;;4.27;59.72
74895;BME280;63447;49.446;8.666;2023-04-06T06:54:58;100721.84;;;4.38;58.96
74895;BME280;63447;49.446;8.666;2023-04-06T06:57:25;100732.91;;;4.57;58.00
74895;BME280;63447;49.446;8.666;2023-04-06T06:59:51;100721.88;;;4.72;56.45
74895;BME280;63447;49.446;8.666;2023-04-06T07:02:18;100734.63;;;4.87;54.03
74895;BME280;63447;49.446;8.666;2023-04-06T07:04:49;100706.22;;;4.83;53.86
74895;BME280;63447;49.446;8.666;2023-04-06T07:07:17;100728.44;;;5.05;53.87
74895;BME280;63447;49.446;8.666;2023-04-06T07:09:42;100731.19;;;5.05;53.56
74895;BME280;63447;49.446;8.666;2023-04-06T07:12:10;100729.47;;;5.15;52.71
74895;BME280;63447;49.446;8.666;2023-04-06T07:14:37;100730.91;;;5.36;51.99
74895;BME280;63447;49.446;8.666;2023-04-06T07:17:06;100721.97;;;5.54;51.06
74895;BME280;63447;49.446;8.666;2023-04-06T07:19:31;100698.56;;;5.14;50.45
74895;BME280;63447;49.446;8.666;2023-04-06T07:21:57;100734.53;;;5.55;49.83
74895;BME280;63447;49.446;8.666;2023-04-06T07:24:22;100736.69;;;5.58;49.60
74895;BME280;63447;49.446;8.666;2023-04-06T07:26:47;100724.41;;;5.56;50.11
74895;BME280;63447;49.446;8.666;2023-04-06T07:29:13;100739.75;;;5.80;49.84
74895;BME280;63447;49.446;8.666;2023-04-06T07:31:38;100731.88;;;5.98;49.50
74895;BME280;63447;49.446;8.666;2023-04-06T07:34:03;100729.25;;;5.88;48.70
74895;BME280;63447;49.446;8.666;2023-04-06T07:36:33;100729.81;;;5.90;48.21
74895;BME280;63447;49.446;8.666;2023-04-06T07:39:01;100711.13;;;6.16;48.04
74895;BME280;63447;49.446;8.666;2023-04-06T07:41:27;100729.44;;;6.20;47.87
74895;BME280;63447;49.446;8.666;2023-04-06T07:43:54;100726.28;;;6.08;48.29
74895;BME280;63447;49.446;8.666;2023-04-06T07:46:20;100713.53;;;5.98;47.61
74895;BME280;63447;49.446;8.666;2023-04-06T07:48:46;100715.59;;;6.30;48.82
74895;BME280;63447;49.446;8.666;2023-04-06T07:51:11;100710.16;;;6.25;47.04
74895;BME280;63447;49.446;8.666;2023-04-06T07:53:39;100721.88;;;6.31;48.28
74895;BME280;63447;49.446;8.666;2023-04-06T07:56:09;100712.25;;;6.52;46.81
74895;BME280;63447;49.446;8.666;2023-04-06T07:58:34;100730.94;;;6.69;46.83
74895;BME280;63447;49.446;8.666;2023-04-06T08:01:03;100709.59;;;6.28;47.42
74895;BME280;63447;49.446;8.666;2023-04-06T08:03:28;100729.31;;;6.68;46.30
74895;BME280;63447;49.446;8.666;2023-04-06T08:05:56;100727.81;;;6.94;46.02
74895;BME280;63447;49.446;8.666;2023-04-06T08:08:21;100711.50;;;6.84;46.69
74895;BME280;63447;49.446;8.666;2023-04-06T08:10:48;100725.22;;;6.84;46.25
74895;BME280;63447;49.446;8.666;2023-04-06T08:13:14;100716.81;;;6.94;45.12
74895;BME280;63447;49.446;8.666;2023-04-06T08:15:42;100718.41;;;7.14;45.60
74895;BME280;63447;49.446;8.666;2023-04-06T08:18:10;100717.16;;;7.39;45.39
74895;BME280;63447;49.446;8.666;2023-04-06T08:20:38;100732.53;;;7.67;44.01
74895;BME280;63447;49.446;8.666;2023-04-06T08:23:07;100718.50;;;7.69;44.35
74895;BME280;63447;49.446;8.666;2023-04-06T08:25:35;100727.53;;;7.42;44.58
74895;BME280;63447;49.446;8.666;2023-04-06T08:28:03;100725.84;;;7.87;44.17
74895;BME280;63447;49.446;8.666;2023-04-06T08:30:31;100727.88;;;7.95;44.20
74895;BME280;63447;49.446;8.666;2023-04-06T08:32:56;100738.44;;;8.29;42.65
74895;BME280;63447;49.446;8.666;2023-04-06T08:35:24;100735.28;;;8.22;43.13
74895;BME280;63447;49.446;8.666;2023-04-06T08:37:51;100734.47;;;8.49;42.71
74895;BME280;63447;49.446;8.666;2023-04-06T08:40:16;100698.94;;;8.39;42.28
74895;BME280;63447;49.446;8.666;2023-04-06T08:42:45;100725.13;;;8.72;42.04
74895;BME280;63447;49.446;8.666;2023-04-06T08:45:17;100731.97;;;8.61;40.08
74895;BME280;63447;49.446;8.666;2023-04-06T08:47:45;100725.63;;;8.38;40.14
74895;BME280;63447;49.446;8.666;2023-04-06T08:50:11;100718.38;;;8.29;41.57
74895;BME280;63447;49.446;8.666;2023-04-06T08:52:37;100737.44;;;8.11;42.27
74895;BME280;63447;49.446;8.666;2023-04-06T08:55:06;100727.13;;;8.44;42.42
74895;BME280;63447;49.446;8.666;2023-04-06T08:57:36;100710.16;;;8.65;41.43
74895;BME280;63447;49.446;8.666;2023-04-06T09:00:02;100727.09;;;8.58;40.98
74895;BME280;63447;49.446;8.666;2023-04-06T09:02:30;100699.44;;;8.77;41.39
74895;BME280;63447;49.446;8.666;2023-04-06T09:04:58;100723.44;;;8.85;39.82
74895;BME280;63447;49.446;8.666;2023-04-06T09:07:27;100720.44;;;8.95;41.01
74895;BME280;63447;49.446;8.666;2023-04-06T09:09:56;100714.88;;;9.09;40.84
74895;BME280;63447;49.446;8.666;2023-04-06T09:12:30;100727.03;;;9.39;40.59
74895;BME280;63447;49.446;8.666;2023-04-06T09:14:59;100727.53;;;9.41;39.24
74895;BME280;63447;49.446;8.666;2023-04-06T09:17:28;100728.25;;;9.24;39.41
74895;BME280;63447;49.446;8.666;2023-04-06T09:20:00;100715.88;;;8.91;39.74
74895;BME280;63447;49.446;8.666;2023-04-06T09:22:37;100740.03;;;8.58;41.69
74895;BME280;63447;49.446;8.666;2023-04-06T09:25:08;100720.63;;;8.99;41.27
74895;BME280;63447;49.446;8.666;2023-04-06T09:27:36;100725.81;;;9.00;41.82
74895;BME280;63447;49.446;8.666;2023-04-06T09:30:11;100707.88;;;9.56;41.28
74895;BME280;63447;49.446;8.666;2023-04-06T09:32:54;100709.66;;;9.30;40.54
74895;BME280;63447;49.446;8.666;2023-04-06T09:35:21;100728.03;;;9.74;39.66
74895;BME280;63447;49.446;8.666;2023-04-06T09:37:48;100720.09;;;9.72;40.16
74895;BME280;63447;49.446;8.666;2023-04-06T09:40:16;100703.81;;;9.62;39.05
74895;BME280;63447;49.446;8.666;2023-04-06T09:42:52;100710.78;;;9.99;38.98
74895;BME280;63447;49.446;8.666;2023-04-06T09:45:18;100712.28;;;9.35;39.46
74895;BME280;63447;49.446;8.666;2023-04-06T09:47:46;100700.09;;;9.58;39.28
74895;BME280;63447;49.446;8.666;2023-04-06T09:50:14;100709.06;;;9.41;40.13
74895;BME280;63447;49.446;8.666;2023-04-06T09:52:47;100729.06;;;9.86;38.50
74895;BME280;63447;49.446;8.666;2023-04-06T09:55:36;100700.84;;;10.38;38.74
74895;BME280;63447;49.446;8.666;2023-04-06T09:58:09;100709.31;;;10.02;38.83
74895;BME280;63447;49.446;8.666;2023-04-06T10:00:52;100703.63;;;10.64;38.61
74895;BME280;63447;49.446;8.666;2023-04-06T10:05:50;100697.78;;;10.91;37.61
74895;BME280;63447;49.446;8.666;2023-04-06T10:08:22;100701.09;;;11.31;37.20
74895;BME280;63447;49.446;8.666;2023-04-06T10:10:50;100709.94;;;11.16;34.85
74895;BME280;63447;49.446;8.666;2023-04-06T10:13:18;100693.19;;;11.12;36.35
74895;BME280;63447;49.446;8.666;2023-04-06T10:15:44;100691.44;;;11.54;36.34
74895;BME280;63447;49.446;8.666;2023-04-06T10:18:10;100702.00;;;11.52;36.22
74895;BME280;63447;49.446;8.666;2023-04-06T10:23:29;100695.56;;;11.40;34.31
74895;BME280;63447;49.446;8.666;2023-04-06T10:26:00;100702.88;;;11.91;34.52
74895;BME280;63447;49.446;8.666;2023-04-06T10:28:31;100691.19;;;12.15;33.77
74895;BME280;63447;49.446;8.666;2023-04-06T10:31:02;100665.34;;;12.32;34.28
74895;BME280;63447;49.446;8.666;2023-04-06T10:33:29;100691.06;;;12.11;34.72
74895;BME280;63447;49.446;8.666;2023-04-06T10:35:57;100684.00;;;12.43;33.54
74895;BME280;63447;49.446;8.666;2023-04-06T10:38:41;100691.66;;;12.46;33.01
74895;BME280;63447;49.446;8.666;2023-04-06T10:41:09;100676.97;;;12.67;32.38
74895;BME280;63447;49.446;8.666;2023-04-06T10:43:36;100693.72;;;12.91;32.07
74895;BME280;63447;49.446;8.666;2023-04-06T10:46:06;100689.00;;;12.71;31.38
74895;BME280;63447;49.446;8.666;2023-04-06T10:48:41;100698.63;;;12.85;30.25
74895;BME280;63447;49.446;8.666;2023-04-06T10:51:11;100680.94;;;13.32;29.61
74895;BME280;63447;49.446;8.666;2023-04-06T10:53:43;100668.41;;;13.83;29.22
74895;BME280;63447;49.446;8.666;2023-04-06T10:56:13;100654.47;;;14.84;28.32
74895;BME280;63447;49.446;8.666;2023-04-06T10:58:44;100676.13;;;14.26;28.64
74895;BME280;63447;49.446;8.666;2023-04-06T11:01:12;100680.19;;;14.16;28.62
74895;BME280;63447;49.446;8.666;2023-04-06T11:03:46;100675.91;;;14.07;28.29
74895;BME280;63447;49.446;8.666;2023-04-06T11:06:20;100663.19;;;14.06;28.35
74895;BME280;63447;49.446;8.666;2023-04-06T11:08:47;100671.63;;;14.09;28.72
74895;BME280;63447;49.446;8.666;2023-04-06T11:11:18;100653.66;;;14.31;28.32
74895;BME280;63447;49.446;8.666;2023-04-06T11:13:51;100651.84;;;14.23;28.46
74895;BME280;63447;49.446;8.666;2023-04-06T11:16:19;100645.72;;;14.70;26.70
74895;BME280;63447;49.446;8.666;2023-04-06T11:18:49;100659.09;;;14.40;26.99
74895;BME280;63447;49.446;8.666;2023-04-06T11:21:31;100639.97;;;14.63;26.69
74895;BME280;63447;49.446;8.666;2023-04-06T11:24:07;100650.00;;;15.86;26.39
74895;BME280;63447;49.446;8.666;2023-04-06T11:26:46;100644.81;;;15.53;25.74
74895;BME280;63447;49.446;8.666;2023-04-06T11:29:15;100645.72;;;14.17;26.20
74895;BME280;63447;49.446;8.666;2023-04-06T11:31:48;100647.66;;;14.53;26.02
74895;BME280;63447;49.446;8.666;2023-04-06T11:36:45;100631.13;;;15.01;26.14
74895;BME280;63447;49.446;8.666;2023-04-06T11:39:17;100621.44;;;14.67;26.69
74895;BME280;63447;49.446;8.666;2023-04-06T11:42:07;100634.13;;;15.23;25.84
74895;BME280;63447;49.446;8.666;2023-04-06T11:44:35;100632.50;;;15.22;25.66
74895;BME280;63447;49.446;8.666;2023-04-06T11:47:02;100620.03;;;15.95;25.57
74895;BME280;63447;49.446;8.666;2023-04-06T11:49:28;100631.34;;;15.23;26.00
74895;BME280;63447;49.446;8.666;2023-04-06T11:51:54;100617.25;;;14.73;26.49
74895;BME280;63447;49.446;8.666;2023-04-06T11:54:40;100610.63;;;15.21;26.48
74895;BME280;63447;49.446;8.666;2023-04-06T11:57:07;100611.88;;;15.86;23.31
74895;BME280;63447;49.446;8.666;2023-04-06T11:59:38;100614.84;;;16.13;23.42
74895;BME280;63447;49.446;8.666;2023-04-06T12:02:04;100601.38;;;15.01;23.91
74895;BME280;63447;49.446;8.666;2023-04-06T12:04:29;100610.25;;;15.07;25.07
74895;BME280;63447;49.446;8.666;2023-04-06T12:06:58;100605.66;;;16.28;24.76
74895;BME280;63447;49.446;8.666;2023-04-06T12:09:28;100610.66;;;15.68;23.76
74895;BME280;63447;49.446;8.666;2023-04-06T12:11:53;100591.66;;;15.89;24.80
74895;BME280;63447;49.446;8.666;2023-04-06T12:14:21;100599.53;;;16.77;22.70
74895;BME280;63447;49.446;8.666;2023-04-06T12:16:47;100595.41;;;16.51;22.77
74895;BME280;63447;49.446;8.666;2023-04-06T12:19:15;100585.53;;;16.73;24.29
74895;BME280;63447;49.446;8.666;2023-04-06T12:21:40;100594.50;;;16.09;23.52
74895;BME280;63447;49.446;8.666;2023-04-06T12:24:10;100581.06;;;16.69;23.12
74895;BME280;63447;49.446;8.666;2023-04-06T12:26:38;100588.41;;;16.03;24.34
74895;BME280;63447;49.446;8.666;2023-04-06T12:29:03;100589.53;;;16.18;24.06
74895;BME280;63447;49.446;8.666;2023-04-06T12:31:35;100589.41;;;16.88;23.58
74895;BME280;63447;49.446;8.666;2023-04-06T12:34:03;100587.03;;;16.90;23.30
74895;BME280;63447;49.446;8.666;2023-04-06T12:36:29;100581.72;;;16.62;23.15
74895;BME280;63447;49.446;8.666;2023-04-06T12:38:56;100578.28;;;16.88;22.42
74895;BME280;63447;49.446;8.666;2023-04-06T12:41:21;100580.56;;;17.05;20.80
74895;BME280;63447;49.446;8.666;2023-04-06T12:43:46;100585.09;;;17.13;21.23
74895;BME280;63447;49.446;8.666;2023-04-06T12:46:16;100567.56;;;17.36;21.26
74895;BME280;63447;49.446;8.666;2023-04-06T12:48:42;100585.16;;;17.40;21.35
74895;BME280;63447;49.446;8.666;2023-04-06T12:51:07;100581.66;;;16.78;21.05
74895;BME280;63447;49.446;8.666;2023-04-06T12:53:33;100567.84;;;16.27;21.13
74895;BME280;63447;49.446;8.666;2023-04-06T12:56:02;100575.75;;;16.25;22.09
74895;BME280;63447;49.446;8.666;2023-04-06T12:58:30;100571.63;;;16.00;22.31
74895;BME280;63447;49.446;8.666;2023-04-06T13:00:57;100565.63;;;16.94;21.81
74895;BME280;63447;49.446;8.666;2023-04-06T13:03:28;100568.75;;;16.31;20.82
74895;BME280;63447;49.446;8.666;2023-04-06T13:05:53;100558.75;;;16.49;21.09
74895;BME280;63447;49.446;8.666;2023-04-06T13:08:19;100555.69;;;16.74;20.85
74895;BME280;63447;49.446;8.666;2023-04-06T13:10:51;100549.94;;;17.81;19.82